sensor_id;sensor_type;location;lat;lon;timestamp;pressure;altitude;pressure_sealevel;temperature;humidity
85082;BME280;75424;50.762;7.178;2024-02-23T00:01:05;98406.91;;;5.82;80.90
85082;BME280;75424;50.762;7.178;2024-02-23T00:03:31;98420.28;;;5.79;82.21
85082;BME280;75424;50.762;7.178;2024-02-23T00:05:58;98423.09;;;5.76;82.35
85082;BME280;75424;50.762;7.178;2024-02-23T00:08:23;98429.31;;;5.75;82.81
85082;BME280;75424;50.762;7.178;2024-02-23T00:10:48;98444.41;;;5.72;82.76
85082;BME280;75424;50.762;7.178;2024-02-23T00:13:13;98452.25;;;5.73;82.59
85082;BME280;75424;50.762;7.178;2024-02-23T00:15:39;98452.78;;;5.64;83.56
85082;BME280;75424;50.762;7.178;2024-02-23T00:18:04;98460.56;;;5.52;84.77
85082;BME280;75424;50.762;7.178;2024-02-23T00:20:31;98457.06;;;5.51;84.59
85082;BME280;75424;50.762;7.178;2024-02-23T00:22:56;98471.09;;;5.52;85.04
85082;BME280;75424;50.762;7.178;2024-02-23T00:25:21;98469.22;;;5.54;85.38
85082;BME280;75424;50.762;7.178;2024-02-23T00:27:48;98466.72;;;5.66;83.26
85082;BME280;75424;50.762;7.178;2024-02-23T00:30:14;98466.16;;;5.61;83.12
85082;BME280;75424;50.762;7.178;2024-02-23T00:32:39;98472.69;;;5.54;81.88
85082;BME280;75424;50.762;7.178;2024-02-23T00:35:05;98477.88;;;5.56;81.50
85082;BME280;75424;50.762;7.178;2024-02-23T00:37:30;98476.13;;;5.56;80.96
85082;BME280;75424;50.762;7.178;2024-02-23T00:40:06;98481.81;;;5.49;81.09
85082;BME280;75424;50.762;7.178;2024-02-23T00:42:32;98507.28;;;5.48;80.74
85082;BME280;75424;50.762;7.178;2024-02-23T00:44:57;98499.84;;;5.70;78.17
85082;BME280;75424;50.762;7.178;2024-02-23T00:47:22;98510.44;;;5.55;80.31
85082;BME280;75424;50.762;7.178;2024-02-23T00:49:48;98518.59;;;5.35;81.29
85082;BME280;75424;50.762;7.178;2024-02-23T00:52:14;98529.84;;;5.23;81.18
85082;BME280;75424;50.762;7.178;2024-02-23T00:54:39;98533.00;;;5.14;81.62
85082;BME280;75424;50.762;7.178;2024-02-23T00:57:05;98532.22;;;5.12;82.21
85082;BME280;75424;50.762;7.178;2024-02-23T00:59:30;98544.09;;;5.03;82.37
85082;BME280;75424;50.762;7.178;2024-02-23T01:01:55;98553.78;;;5.03;81.33
85082;BME280;75424;50.762;7.178;2024-02-23T01:04:21;98548.44;;;4.89;82.32
85082;BME280;75424;50.762;7.178;2024-02-23T01:06:46;98554.88;;;4.83;83.57
85082;BME280;75424;50.762;7.178;2024-02-23T01:09:12;98559.03;;;4.72;82.64
85082;BME280;75424;50.762;7.178;2024-02-23T01:11:37;98568.25;;;4.63;83.40
85082;BME280;75424;50.762;7.178;2024-02-23T01:14:02;98567.91;;;4.54;82.88
85082;BME280;75424;50.762;7.178;2024-02-23T01:16:28;98569.88;;;4.66;82.44
85082;BME280;75424;50.762;7.178;2024-02-23T01:18:53;98567.81;;;4.55;83.02
85082;BME280;75424;50.762;7.178;2024-02-23T01:21:18;98573.97;;;4.54;82.95
85082;BME280;75424;50.762;7.178;2024-02-23T01:23:44;98578.28;;;4.40;83.48
85082;BME280;75424;50.762;7.178;2024-02-23T01:26:09;98575.50;;;4.43;83.68
85082;BME280;75424;50.762;7.178;2024-02-23T01:28:35;98581.03;;;4.54;81.05
85082;BME280;75424;50.762;7.178;2024-02-23T01:31:00;98576.97;;;4.64;82.19
85082;BME280;75424;50.762;7.178;2024-02-23T01:33:26;98591.56;;;4.54;81.98
85082;BME280;75424;50.762;7.178;2024-02-23T01:35:51;98580.97;;;4.55;81.59
85082;BME280;75424;50.762;7.178;2024-02-23T01:38:16;98580.53;;;4.63;81.40
85082;BME280;75424;50.762;7.178;2024-02-23T01:40:45;98583.59;;;4.55;81.00
85082;BME280;75424;50.762;7.178;2024-02-23T01:43:11;98578.72;;;4.48;81.00
85082;BME280;75424;50.762;7.178;2024-02-23T01:45:36;98590.66;;;4.38;81.48
85082;BME280;75424;50.762;7.178;2024-02-23T01:48:01;98594.91;;;4.40;81.94
85082;BME280;75424;50.762;7.178;2024-02-23T01:50:27;98598.63;;;4.36;82.06
85082;BME280;75424;50.762;7.178;2024-02-23T01:52:54;98596.06;;;4.35;81.98
85082;BME280;75424;50.762;7.178;2024-02-23T01:55:20;98595.38;;;4.31;81.81
85082;BME280;75424;50.762;7.178;2024-02-23T01:57:47;98595.13;;;4.36;81.59
85082;BME280;75424;50.762;7.178;2024-02-23T02:00:17;98588.41;;;4.47;81.72
85082;BME280;75424;50.762;7.178;2024-02-23T02:02:43;98605.09;;;4.46;80.75
85082;BME280;75424;50.762;7.178;2024-02-23T02:05:09;98610.81;;;4.54;80.53
85082;BME280;75424;50.762;7.178;2024-02-23T02:07:35;98605.53;;;4.54;80.13
85082;BME280;75424;50.762;7.178;2024-02-23T02:10:00;98608.97;;;4.39;80.81
85082;BME280;75424;50.762;7.178;2024-02-23T02:12:27;98625.53;;;4.24;82.55
85082;BME280;75424;50.762;7.178;2024-02-23T02:14:52;98621.34;;;4.20;82.16
85082;BME280;75424;50.762;7.178;2024-02-23T02:17:18;98630.47;;;4.30;82.26
85082;BME280;75424;50.762;7.178;2024-02-23T02:19:49;98633.25;;;4.27;81.87
85082;BME280;75424;50.762;7.178;2024-02-23T02:22:14;98631.56;;;4.26;81.32
85082;BME280;75424;50.762;7.178;2024-02-23T02:24:40;98635.44;;;4.19;82.10
85082;BME280;75424;50.762;7.178;2024-02-23T02:27:08;98629.78;;;4.27;81.45
85082;BME280;75424;50.762;7.178;2024-02-23T02:29:35;98633.91;;;4.32;81.09
85082;BME280;75424;50.762;7.178;2024-02-23T02:32:00;98634.25;;;4.25;80.80
85082;BME280;75424;50.762;7.178;2024-02-23T02:34:26;98635.75;;;4.13;80.84
85082;BME280;75424;50.762;7.178;2024-02-23T02:36:51;98643.84;;;4.09;81.59
85082;BME280;75424;50.762;7.178;2024-02-23T02:39:17;98644.06;;;4.04;80.71
85082;BME280;75424;50.762;7.178;2024-02-23T02:41:42;98641.97;;;4.11;80.80
85082;BME280;75424;50.762;7.178;2024-02-23T02:44:07;98648.50;;;4.21;79.70
85082;BME280;75424;50.762;7.178;2024-02-23T02:46:35;98646.00;;;4.18;79.65
85082;BME280;75424;50.762;7.178;2024-02-23T02:49:00;98653.00;;;4.19;80.52
85082;BME280;75424;50.762;7.178;2024-02-23T02:51:25;98653.53;;;4.25;79.39
85082;BME280;75424;50.762;7.178;2024-02-23T02:53:51;98656.00;;;4.28;79.06
85082;BME280;75424;50.762;7.178;2024-02-23T02:56:16;98659.53;;;4.27;79.10
85082;BME280;75424;50.762;7.178;2024-02-23T02:58:42;98652.59;;;4.26;79.10
85082;BME280;75424;50.762;7.178;2024-02-23T03:01:07;98658.00;;;4.23;79.52
85082;BME280;75424;50.762;7.178;2024-02-23T03:03:33;98662.09;;;4.29;79.31
85082;BME280;75424;50.762;7.178;2024-02-23T03:05:58;98658.63;;;4.28;79.61
85082;BME280;75424;50.762;7.178;2024-02-23T03:08:24;98658.13;;;4.20;80.32
85082;BME280;75424;50.762;7.178;2024-02-23T03:10:49;98652.28;;;4.32;79.47
85082;BME280;75424;50.762;7.178;2024-02-23T03:13:14;98662.97;;;4.29;79.28
85082;BME280;75424;50.762;7.178;2024-02-23T03:15:40;98659.78;;;4.23;79.79
85082;BME280;75424;50.762;7.178;2024-02-23T03:18:05;98658.53;;;4.13;79.86
85082;BME280;75424;50.762;7.178;2024-02-23T03:20:30;98661.03;;;4.16;79.84
85082;BME280;75424;50.762;7.178;2024-02-23T03:22:56;98661.63;;;4.21;79.70
85082;BME280;75424;50.762;7.178;2024-02-23T03:25:21;98661.56;;;4.22;79.62
85082;BME280;75424;50.762;7.178;2024-02-23T03:27:46;98670.38;;;4.21;79.34
85082;BME280;75424;50.762;7.178;2024-02-23T03:30:11;98674.16;;;4.16;79.57
85082;BME280;75424;50.762;7.178;2024-02-23T03:32:37;98674.59;;;4.07;80.37
85082;BME280;75424;50.762;7.178;2024-02-23T03:35:05;98677.16;;;4.08;80.41
85082;BME280;75424;50.762;7.178;2024-02-23T03:37:31;98670.75;;;3.97;80.05
85082;BME280;75424;50.762;7.178;2024-02-23T03:39:56;98671.56;;;3.97;79.97
85082;BME280;75424;50.762;7.178;2024-02-23T03:42:22;98671.75;;;3.94;81.31
85082;BME280;75424;50.762;7.178;2024-02-23T03:44:47;98670.50;;;4.01;80.00
85082;BME280;75424;50.762;7.178;2024-02-23T03:47:12;98668.72;;;4.02;80.03
85082;BME280;75424;50.762;7.178;2024-02-23T03:49:38;98672.50;;;3.96;80.04
85082;BME280;75424;50.762;7.178;2024-02-23T03:52:04;98674.91;;;4.01;80.87
85082;BME280;75424;50.762;7.178;2024-02-23T03:54:30;98672.50;;;3.96;80.74
85082;BME280;75424;50.762;7.178;2024-02-23T03:56:57;98671.81;;;3.92;80.66
85082;BME280;75424;50.762;7.178;2024-02-23T03:59:23;98674.81;;;3.85;81.07
85082;BME280;75424;50.762;7.178;2024-02-23T04:01:48;98676.50;;;3.86;81.25
85082;BME280;75424;50.762;7.178;2024-02-23T04:04:14;98675.13;;;3.79;80.70
85082;BME280;75424;50.762;7.178;2024-02-23T04:06:39;98673.22;;;3.64;81.80
85082;BME280;75424;50.762;7.178;2024-02-23T04:09:05;98675.91;;;3.62;81.34
85082;BME280;75424;50.762;7.178;2024-02-23T04:11:31;98681.78;;;3.67;80.88
85082;BME280;75424;50.762;7.178;2024-02-23T04:13:56;98677.53;;;3.65;81.32
85082;BME280;75424;50.762;7.178;2024-02-23T04:16:23;98685.09;;;3.71;80.84
85082;BME280;75424;50.762;7.178;2024-02-23T04:18:49;98688.19;;;3.62;80.49
85082;BME280;75424;50.762;7.178;2024-02-23T04:21:15;98684.41;;;3.67;81.67
85082;BME280;75424;50.762;7.178;2024-02-23T04:23:40;98687.84;;;3.69;82.05
85082;BME280;75424;50.762;7.178;2024-02-23T04:26:05;98687.91;;;3.68;81.00
85082;BME280;75424;50.762;7.178;2024-02-23T04:28:31;98691.75;;;3.61;81.53
85082;BME280;75424;50.762;7.178;2024-02-23T04:30:58;98689.47;;;3.53;82.12
85082;BME280;75424;50.762;7.178;2024-02-23T04:33:24;98686.00;;;3.53;82.16
85082;BME280;75424;50.762;7.178;2024-02-23T04:35:49;98685.84;;;3.56;82.62
85082;BME280;75424;50.762;7.178;2024-02-23T04:38:15;98688.97;;;3.64;82.19
85082;BME280;75424;50.762;7.178;2024-02-23T04:40:40;98694.72;;;3.53;82.05
85082;BME280;75424;50.762;7.178;2024-02-23T04:43:05;98690.13;;;3.58;82.25
85082;BME280;75424;50.762;7.178;2024-02-23T04:45:31;98699.75;;;3.58;82.52
85082;BME280;75424;50.762;7.178;2024-02-23T04:47:56;98701.59;;;3.56;81.77
85082;BME280;75424;50.762;7.178;2024-02-23T04:50:21;98703.06;;;3.61;81.60
85082;BME280;75424;50.762;7.178;2024-02-23T04:52:47;98696.84;;;3.64;81.74
85082;BME280;75424;50.762;7.178;2024-02-23T04:55:12;98698.00;;;3.58;81.32
85082;BME280;75424;50.762;7.178;2024-02-23T04:57:38;98699.53;;;3.44;82.59
85082;BME280;75424;50.762;7.178;2024-02-23T05:00:04;98703.97;;;3.43;82.14
85082;BME280;75424;50.762;7.178;2024-02-23T05:02:31;98702.41;;;3.39;82.95
85082;BME280;75424;50.762;7.178;2024-02-23T05:05:01;98706.50;;;3.26;82.56
85082;BME280;75424;50.762;7.178;2024-02-23T05:07:26;98711.38;;;3.15;83.54
85082;BME280;75424;50.762;7.178;2024-02-23T05:09:51;98703.63;;;3.12;84.41
85082;BME280;75424;50.762;7.178;2024-02-23T05:12:17;98709.53;;;3.17;83.60
85082;BME280;75424;50.762;7.178;2024-02-23T05:14:42;98697.50;;;3.13;84.34
85082;BME280;75424;50.762;7.178;2024-02-23T05:17:07;98697.56;;;3.12;83.67
85082;BME280;75424;50.762;7.178;2024-02-23T05:19:32;98708.69;;;3.17;83.36
85082;BME280;75424;50.762;7.178;2024-02-23T05:21:58;98711.25;;;3.18;84.30
85082;BME280;75424;50.762;7.178;2024-02-23T05:24:23;98708.81;;;3.14;83.48
85082;BME280;75424;50.762;7.178;2024-02-23T05:26:48;98698.06;;;3.20;84.02
85082;BME280;75424;50.762;7.178;2024-02-23T05:29:14;98697.41;;;3.33;83.82
85082;BME280;75424;50.762;7.178;2024-02-23T05:31:47;98693.22;;;3.29;83.61
85082;BME280;75424;50.762;7.178;2024-02-23T05:34:13;98683.66;;;3.28;83.50
85082;BME280;75424;50.762;7.178;2024-02-23T05:36:38;98686.28;;;3.28;83.83
85082;BME280;75424;50.762;7.178;2024-02-23T05:39:04;98694.94;;;3.30;84.18
85082;BME280;75424;50.762;7.178;2024-02-23T05:41:30;98686.28;;;3.28;84.13
85082;BME280;75424;50.762;7.178;2024-02-23T05:43:55;98679.63;;;3.21;84.13
85082;BME280;75424;50.762;7.178;2024-02-23T05:46:20;98683.25;;;3.19;84.95
85082;BME280;75424;50.762;7.178;2024-02-23T05:48:46;98678.00;;;3.19;84.74
85082;BME280;75424;50.762;7.178;2024-02-23T05:51:11;98676.16;;;3.39;83.71
85082;BME280;75424;50.762;7.178;2024-02-23T05:53:37;98669.84;;;3.43;83.00
85082;BME280;75424;50.762;7.178;2024-02-23T05:56:02;98673.59;;;3.38;83.67
85082;BME280;75424;50.762;7.178;2024-02-23T05:58:28;98679.19;;;3.30;84.07
85082;BME280;75424;50.762;7.178;2024-02-23T06:00:54;98672.38;;;3.26;83.96
85082;BME280;75424;50.762;7.178;2024-02-23T06:03:19;98680.97;;;3.30;84.11
85082;BME280;75424;50.762;7.178;2024-02-23T06:05:44;98691.78;;;3.41;84.36
85082;BME280;75424;50.762;7.178;2024-02-23T06:08:10;98692.78;;;3.38;84.07
85082;BME280;75424;50.762;7.178;2024-02-23T06:10:35;98676.56;;;3.30;83.61
85082;BME280;75424;50.762;7.178;2024-02-23T06:13:01;98684.13;;;3.18;84.12
85082;BME280;75424;50.762;7.178;2024-02-23T06:15:27;98684.44;;;3.12;85.56
85082;BME280;75424;50.762;7.178;2024-02-23T06:17:53;98683.06;;;3.03;85.19
85082;BME280;75424;50.762;7.178;2024-02-23T06:20:18;98689.19;;;3.22;84.94
85082;BME280;75424;50.762;7.178;2024-02-23T06:22:45;98684.94;;;3.38;84.55
85082;BME280;75424;50.762;7.178;2024-02-23T06:25:10;98679.81;;;3.54;83.71
85082;BME280;75424;50.762;7.178;2024-02-23T06:27:37;98668.38;;;3.73;83.16
85082;BME280;75424;50.762;7.178;2024-02-23T06:30:02;98667.63;;;3.88;82.50
85082;BME280;75424;50.762;7.178;2024-02-23T06:32:28;98665.31;;;3.99;82.06
85082;BME280;75424;50.762;7.178;2024-02-23T06:34:54;98662.25;;;4.09;81.31
85082;BME280;75424;50.762;7.178;2024-02-23T06:37:19;98653.06;;;4.17;79.73
85082;BME280;75424;50.762;7.178;2024-02-23T06:39:44;98658.78;;;4.25;80.02
85082;BME280;75424;50.762;7.178;2024-02-23T06:42:15;98664.72;;;4.29;80.47
85082;BME280;75424;50.762;7.178;2024-02-23T06:44:40;98670.91;;;4.28;80.28
85082;BME280;75424;50.762;7.178;2024-02-23T06:47:06;98669.22;;;4.27;80.16
85082;BME280;75424;50.762;7.178;2024-02-23T06:49:32;98677.41;;;4.21;79.90
85082;BME280;75424;50.762;7.178;2024-02-23T06:51:57;98677.31;;;4.22;80.71
85082;BME280;75424;50.762;7.178;2024-02-23T06:54:22;98677.44;;;4.38;79.31
85082;BME280;75424;50.762;7.178;2024-02-23T06:56:48;98676.09;;;4.46;79.09
85082;BME280;75424;50.762;7.178;2024-02-23T06:59:13;98684.03;;;4.45;78.91
85082;BME280;75424;50.762;7.178;2024-02-23T07:01:48;98686.38;;;4.51;79.51
85082;BME280;75424;50.762;7.178;2024-02-23T07:04:14;98679.97;;;4.56;79.68
85082;BME280;75424;50.762;7.178;2024-02-23T07:06:39;98676.25;;;4.60;78.06
85082;BME280;75424;50.762;7.178;2024-02-23T07:09:04;98681.56;;;4.59;78.41
85082;BME280;75424;50.762;7.178;2024-02-23T07:11:30;98685.91;;;4.60;78.56
85082;BME280;75424;50.762;7.178;2024-02-23T07:13:55;98687.69;;;4.59;78.16
85082;BME280;75424;50.762;7.178;2024-02-23T07:16:21;98681.91;;;4.53;79.21
85082;BME280;75424;50.762;7.178;2024-02-23T07:18:47;98686.84;;;4.59;78.59
85082;BME280;75424;50.762;7.178;2024-02-23T07:21:12;98686.28;;;4.69;78.46
85082;BME280;75424;50.762;7.178;2024-02-23T07:23:37;98682.69;;;4.87;77.90
85082;BME280;75424;50.762;7.178;2024-02-23T07:26:03;98689.03;;;5.00;77.02
85082;BME280;75424;50.762;7.178;2024-02-23T07:28:28;98686.59;;;5.13;76.05
85082;BME280;75424;50.762;7.178;2024-02-23T07:30:53;98679.97;;;5.21;76.05
85082;BME280;75424;50.762;7.178;2024-02-23T07:33:19;98682.75;;;5.18;76.34
85082;BME280;75424;50.762;7.178;2024-02-23T07:35:44;98687.13;;;5.19;75.62
85082;BME280;75424;50.762;7.178;2024-02-23T07:38:09;98687.72;;;5.24;75.42
85082;BME280;75424;50.762;7.178;2024-02-23T07:40:36;98701.44;;;5.46;74.45
85082;BME280;75424;50.762;7.178;2024-02-23T07:43:01;98692.78;;;5.75;73.21
85082;BME280;75424;50.762;7.178;2024-02-23T07:45:26;98694.25;;;5.96;73.22
85082;BME280;75424;50.762;7.178;2024-02-23T07:47:52;98690.25;;;6.05;72.23
85082;BME280;75424;50.762;7.178;2024-02-23T07:50:17;98684.56;;;5.97;72.33
85082;BME280;75424;50.762;7.178;2024-02-23T07:52:44;98682.34;;;5.89;73.45
85082;BME280;75424;50.762;7.178;2024-02-23T07:55:09;98683.94;;;5.76;74.04
85082;BME280;75424;50.762;7.178;2024-02-23T07:57:34;98685.28;;;5.68;73.86
85082;BME280;75424;50.762;7.178;2024-02-23T08:00:00;98685.22;;;5.69;72.91
85082;BME280;75424;50.762;7.178;2024-02-23T08:02:25;98682.75;;;5.66;73.93
85082;BME280;75424;50.762;7.178;2024-02-23T08:04:51;98697.97;;;5.77;72.86
85082;BME280;75424;50.762;7.178;2024-02-23T08:07:17;98683.28;;;5.88;72.24
85082;BME280;75424;50.762;7.178;2024-02-23T08:09:42;98690.94;;;5.93;72.32
85082;BME280;75424;50.762;7.178;2024-02-23T08:12:08;98684.88;;;5.91;72.35
85082;BME280;75424;50.762;7.178;2024-02-23T08:14:33;98683.78;;;5.79;72.46
85082;BME280;75424;50.762;7.178;2024-02-23T08:16:59;98682.69;;;5.83;72.65
85082;BME280;75424;50.762;7.178;2024-02-23T08:19:24;98697.66;;;5.98;71.72
85082;BME280;75424;50.762;7.178;2024-02-23T08:21:49;98705.34;;;6.17;71.47
85082;BME280;75424;50.762;7.178;2024-02-23T08:24:15;98702.25;;;6.40;71.01
85082;BME280;75424;50.762;7.178;2024-02-23T08:26:40;98702.38;;;6.52;70.53
85082;BME280;75424;50.762;7.178;2024-02-23T08:29:07;98710.78;;;6.59;69.47
85082;BME280;75424;50.762;7.178;2024-02-23T08:31:34;98699.81;;;6.51;69.30
85082;BME280;75424;50.762;7.178;2024-02-23T08:33:59;98697.81;;;6.40;70.08
85082;BME280;75424;50.762;7.178;2024-02-23T08:36:24;98704.53;;;6.46;70.71
85082;BME280;75424;50.762;7.178;2024-02-23T08:38:49;98695.72;;;6.61;68.70
85082;BME280;75424;50.762;7.178;2024-02-23T08:41:15;98697.31;;;6.63;69.30
85082;BME280;75424;50.762;7.178;2024-02-23T08:43:40;98689.06;;;6.69;68.49
85082;BME280;75424;50.762;7.178;2024-02-23T08:46:06;98685.94;;;6.77;68.51
85082;BME280;75424;50.762;7.178;2024-02-23T08:48:31;98688.16;;;6.84;69.16
85082;BME280;75424;50.762;7.178;2024-02-23T08:50:57;98697.97;;;6.96;68.61
85082;BME280;75424;50.762;7.178;2024-02-23T08:53:22;98704.66;;;7.16;69.27
85082;BME280;75424;50.762;7.178;2024-02-23T08:55:47;98691.47;;;7.30;67.08
85082;BME280;75424;50.762;7.178;2024-02-23T08:58:13;98709.84;;;7.31;67.87
85082;BME280;75424;50.762;7.178;2024-02-23T09:00:38;98699.38;;;7.30;67.46
85082;BME280;75424;50.762;7.178;2024-02-23T09:03:03;98705.34;;;7.33;67.72
85082;BME280;75424;50.762;7.178;2024-02-23T09:05:29;98706.34;;;7.45;67.77
85082;BME280;75424;50.762;7.178;2024-02-23T09:07:54;98708.31;;;7.55;66.87
85082;BME280;75424;50.762;7.178;2024-02-23T09:10:20;98719.66;;;7.57;65.58
85082;BME280;75424;50.762;7.178;2024-02-23T09:12:45;98725.50;;;7.62;66.67
85082;BME280;75424;50.762;7.178;2024-02-23T09:15:10;98731.75;;;7.61;65.59
85082;BME280;75424;50.762;7.178;2024-02-23T09:17:36;98730.16;;;7.59;66.04
85082;BME280;75424;50.762;7.178;2024-02-23T09:20:01;98724.50;;;7.51;67.19
85082;BME280;75424;50.762;7.178;2024-02-23T09:22:27;98738.94;;;7.45;66.13
85082;BME280;75424;50.762;7.178;2024-02-23T09:24:52;98717.38;;;7.51;66.48
85082;BME280;75424;50.762;7.178;2024-02-23T09:27:20;98733.84;;;7.56;67.19
85082;BME280;75424;50.762;7.178;2024-02-23T09:29:46;98725.41;;;7.64;66.73
85082;BME280;75424;50.762;7.178;2024-02-23T09:32:11;98731.28;;;7.69;66.21
85082;BME280;75424;50.762;7.178;2024-02-23T09:34:36;98724.72;;;7.74;65.76
85082;BME280;75424;50.762;7.178;2024-02-23T09:37:02;98722.75;;;7.78;65.48
85082;BME280;75424;50.762;7.178;2024-02-23T09:39:27;98721.53;;;7.84;66.06
85082;BME280;75424;50.762;7.178;2024-02-23T09:41:55;98727.75;;;7.83;66.95
85082;BME280;75424;50.762;7.178;2024-02-23T09:44:21;98729.03;;;7.90;66.06
85082;BME280;75424;50.762;7.178;2024-02-23T09:46:47;98727.63;;;7.84;66.18
85082;BME280;75424;50.762;7.178;2024-02-23T09:49:14;98736.06;;;7.77;66.86
85082;BME280;75424;50.762;7.178;2024-02-23T09:51:40;98738.81;;;7.75;67.01
85082;BME280;75424;50.762;7.178;2024-02-23T09:54:06;98741.91;;;7.82;66.24
85082;BME280;75424;50.762;7.178;2024-02-23T09:56:32;98734.91;;;7.95;65.29
85082;BME280;75424;50.762;7.178;2024-02-23T09:59:01;98732.53;;;8.04;65.25
85082;BME280;75424;50.762;7.178;2024-02-23T10:01:28;98742.78;;;8.09;64.40
85082;BME280;75424;50.762;7.178;2024-02-23T10:03:56;98735.25;;;8.17;65.04
85082;BME280;75424;50.762;7.178;2024-02-23T10:06:23;98737.59;;;8.21;65.26
85082;BME280;75424;50.762;7.178;2024-02-23T10:08:48;98731.91;;;8.27;65.00
85082;BME280;75424;50.762;7.178;2024-02-23T10:11:18;98739.75;;;8.29;64.27
85082;BME280;75424;50.762;7.178;2024-02-23T10:13:44;98733.72;;;8.27;65.19
85082;BME280;75424;50.762;7.178;2024-02-23T10:16:09;98735.88;;;8.20;67.11
85082;BME280;75424;50.762;7.178;2024-02-23T10:18:38;98735.44;;;8.28;65.64
85082;BME280;75424;50.762;7.178;2024-02-23T10:21:04;98742.41;;;8.29;64.38
85082;BME280;75424;50.762;7.178;2024-02-23T10:23:30;98745.59;;;8.34;64.26
85082;BME280;75424;50.762;7.178;2024-02-23T10:25:55;98747.25;;;8.22;64.83
85082;BME280;75424;50.762;7.178;2024-02-23T10:28:21;98751.84;;;8.19;65.61
85082;BME280;75424;50.762;7.178;2024-02-23T10:30:48;98745.72;;;8.18;65.76
85082;BME280;75424;50.762;7.178;2024-02-23T10:33:14;98750.72;;;8.09;66.88
85082;BME280;75424;50.762;7.178;2024-02-23T10:35:39;98746.38;;;8.08;66.56
85082;BME280;75424;50.762;7.178;2024-02-23T10:38:08;98748.41;;;8.04;65.90
85082;BME280;75424;50.762;7.178;2024-02-23T10:40:38;98747.53;;;8.04;65.76
85082;BME280;75424;50.762;7.178;2024-02-23T10:43:11;98743.94;;;8.05;64.42
85082;BME280;75424;50.762;7.178;2024-02-23T10:45:38;98737.31;;;8.12;64.50
85082;BME280;75424;50.762;7.178;2024-02-23T10:48:06;98746.44;;;8.34;65.66
85082;BME280;75424;50.762;7.178;2024-02-23T10:50:34;98755.22;;;8.61;64.86
85082;BME280;75424;50.762;7.178;2024-02-23T10:53:00;98745.50;;;8.74;62.43
85082;BME280;75424;50.762;7.178;2024-02-23T10:55:26;98754.06;;;8.92;63.10
85082;BME280;75424;50.762;7.178;2024-02-23T10:57:53;98745.59;;;9.12;64.32
85082;BME280;75424;50.762;7.178;2024-02-23T11:00:21;98753.47;;;9.26;63.39
85082;BME280;75424;50.762;7.178;2024-02-23T11:02:51;98758.09;;;9.22;61.98
85082;BME280;75424;50.762;7.178;2024-02-23T11:05:18;98769.13;;;9.16;63.28
85082;BME280;75424;50.762;7.178;2024-02-23T11:07:46;98769.38;;;8.87;64.47
85082;BME280;75424;50.762;7.178;2024-02-23T11:10:15;98781.56;;;8.77;65.54
85082;BME280;75424;50.762;7.178;2024-02-23T11:12:41;98782.75;;;8.98;66.12
85082;BME280;75424;50.762;7.178;2024-02-23T11:15:07;98770.28;;;9.25;65.24
85082;BME280;75424;50.762;7.178;2024-02-23T11:17:33;98762.66;;;9.45;64.31
85082;BME280;75424;50.762;7.178;2024-02-23T11:20:03;98759.69;;;9.50;63.71
85082;BME280;75424;50.762;7.178;2024-02-23T11:22:35;98753.53;;;9.74;63.02
85082;BME280;75424;50.762;7.178;2024-02-23T11:25:03;98747.50;;;9.60;62.05
85082;BME280;75424;50.762;7.178;2024-02-23T11:27:32;98754.81;;;9.56;62.21
85082;BME280;75424;50.762;7.178;2024-02-23T11:29:59;98750.38;;;9.69;61.97
85082;BME280;75424;50.762;7.178;2024-02-23T11:32:38;98751.47;;;9.90;61.59
85082;BME280;75424;50.762;7.178;2024-02-23T11:35:06;98746.38;;;10.00;60.40
85082;BME280;75424;50.762;7.178;2024-02-23T11:37:31;98751.81;;;9.86;61.73
85082;BME280;75424;50.762;7.178;2024-02-23T11:39:59;98751.19;;;9.82;60.74
85082;BME280;75424;50.762;7.178;2024-02-23T11:42:27;98742.22;;;9.60;62.29
85082;BME280;75424;50.762;7.178;2024-02-23T11:44:52;98740.72;;;9.56;62.55
85082;BME280;75424;50.762;7.178;2024-02-23T11:47:19;98742.31;;;9.71;62.64
85082;BME280;75424;50.762;7.178;2024-02-23T11:49:44;98734.34;;;9.71;62.08
85082;BME280;75424;50.762;7.178;2024-02-23T11:52:10;98731.75;;;9.82;61.34
85082;BME280;75424;50.762;7.178;2024-02-23T11:54:35;98739.41;;;9.74;60.71
85082;BME280;75424;50.762;7.178;2024-02-23T11:57:00;98720.53;;;9.66;60.19
85082;BME280;75424;50.762;7.178;2024-02-23T11:59:26;98730.31;;;9.65;61.30
85082;BME280;75424;50.762;7.178;2024-02-23T12:01:51;98728.50;;;9.66;61.33
85082;BME280;75424;50.762;7.178;2024-02-23T12:04:17;98730.94;;;9.69;61.86
85082;BME280;75424;50.762;7.178;2024-02-23T12:06:42;98735.19;;;9.71;61.43
85082;BME280;75424;50.762;7.178;2024-02-23T12:09:08;98734.31;;;9.83;61.34
85082;BME280;75424;50.762;7.178;2024-02-23T12:11:34;98726.13;;;9.86;60.27
85082;BME280;75424;50.762;7.178;2024-02-23T12:14:00;98727.53;;;9.79;60.79
85082;BME280;75424;50.762;7.178;2024-02-23T12:16:27;98728.06;;;9.84;61.01
85082;BME280;75424;50.762;7.178;2024-02-23T12:18:54;98711.19;;;9.85;59.95
85082;BME280;75424;50.762;7.178;2024-02-23T12:21:21;98712.44;;;9.92;60.12
85082;BME280;75424;50.762;7.178;2024-02-23T12:23:48;98704.31;;;9.70;59.32
85082;BME280;75424;50.762;7.178;2024-02-23T12:26:16;98709.03;;;9.42;59.93
85082;BME280;75424;50.762;7.178;2024-02-23T12:28:43;98721.31;;;9.30;60.58
85082;BME280;75424;50.762;7.178;2024-02-23T12:31:09;98712.28;;;9.33;59.94
85082;BME280;75424;50.762;7.178;2024-02-23T12:33:37;98713.78;;;9.49;60.85
85082;BME280;75424;50.762;7.178;2024-02-23T12:36:04;98729.38;;;9.54;59.65
85082;BME280;75424;50.762;7.178;2024-02-23T12:38:29;98718.56;;;9.57;59.73
85082;BME280;75424;50.762;7.178;2024-02-23T12:40:55;98719.56;;;9.67;59.53
85082;BME280;75424;50.762;7.178;2024-02-23T12:43:21;98721.09;;;9.71;61.06
85082;BME280;75424;50.762;7.178;2024-02-23T12:45:49;98714.47;;;9.76;60.46
85082;BME280;75424;50.762;7.178;2024-02-23T12:48:15;98722.00;;;9.82;60.59
85082;BME280;75424;50.762;7.178;2024-02-23T12:50:41;98723.78;;;9.82;60.93
85082;BME280;75424;50.762;7.178;2024-02-23T12:53:08;98728.69;;;9.75;59.91
85082;BME280;75424;50.762;7.178;2024-02-23T12:55:33;98721.69;;;9.74;60.28
85082;BME280;75424;50.762;7.178;2024-02-23T12:57:59;98720.00;;;9.86;60.39
85082;BME280;75424;50.762;7.178;2024-02-23T13:00:24;98717.00;;;9.90;59.91
85082;BME280;75424;50.762;7.178;2024-02-23T13:02:50;98708.13;;;10.02;60.35